createdAt,value
2023-05-09T00:00:19.261Z,1013.90
2023-05-09T00:01:19.253Z,1013.88
2023-05-09T00:02:19.238Z,1013.85
2023-05-09T00:03:19.280Z,1013.79
2023-05-09T00:04:19.281Z,1013.79
2023-05-09T00:05:19.206Z,1013.73
2023-05-09T00:06:19.202Z,1013.68
2023-05-09T00:07:19.190Z,1013.69
2023-05-09T00:08:19.268Z,1013.68
2023-05-09T00:09:19.211Z,1013.66
2023-05-09T00:10:19.146Z,1013.67
2023-05-09T00:11:19.160Z,1013.72
2023-05-09T00:12:19.149Z,1013.64
2023-05-09T00:13:19.177Z,1013.61
2023-05-09T00:14:19.108Z,1013.62
2023-05-09T00:15:20.090Z,1013.60
2023-05-09T00:16:19.153Z,1013.63
2023-05-09T00:17:19.160Z,1013.59
2023-05-09T00:18:19.060Z,1013.60
2023-05-09T00:19:19.052Z,1013.59
2023-05-09T00:20:19.036Z,1013.56
2023-05-09T00:21:19.137Z,1013.57
2023-05-09T00:22:19.014Z,1013.56
2023-05-09T00:23:19.132Z,1013.60
2023-05-09T00:24:18.990Z,1013.64
2023-05-09T00:25:19.085Z,1013.65
2023-05-09T00:26:18.986Z,1013.67
2023-05-09T00:27:18.997Z,1013.62
2023-05-09T00:28:18.948Z,1013.64
2023-05-09T00:29:18.941Z,1013.59
2023-05-09T00:30:18.979Z,1013.57
2023-05-09T00:31:18.923Z,1013.54
2023-05-09T00:32:19.023Z,1013.54
2023-05-09T00:33:18.899Z,1013.49
2023-05-09T00:34:18.873Z,1013.49
2023-05-09T00:35:18.905Z,1013.50
2023-05-09T00:36:18.864Z,1013.51
2023-05-09T00:37:18.892Z,1013.44
2023-05-09T00:38:18.874Z,1013.46
2023-05-09T00:39:18.839Z,1013.42
2023-05-09T00:40:18.812Z,1013.46
2023-05-09T00:41:18.796Z,1013.35
2023-05-09T00:42:18.795Z,1013.39
2023-05-09T00:43:18.807Z,1013.37
2023-05-09T00:44:18.818Z,1013.33
2023-05-09T00:45:18.777Z,1013.35
2023-05-09T00:46:19.825Z,1013.32
2023-05-09T00:47:18.775Z,1013.34
2023-05-09T00:48:18.711Z,1013.30
2023-05-09T00:49:18.726Z,1013.27
2023-05-09T00:50:18.724Z,1013.27
2023-05-09T00:51:19.765Z,1013.26
2023-05-09T00:52:18.680Z,1013.22
2023-05-09T00:53:18.687Z,1013.22
2023-05-09T00:54:18.662Z,1013.18
2023-05-09T00:55:18.675Z,1013.17
2023-05-09T00:56:18.654Z,1013.20
2023-05-09T00:57:18.633Z,1013.18
2023-05-09T00:58:18.614Z,1013.19
2023-05-09T00:59:18.679Z,1013.19
2023-05-09T01:00:18.641Z,1013.14
2023-05-09T01:01:18.714Z,1013.17
2023-05-09T01:02:18.624Z,1013.16
2023-05-09T01:03:18.693Z,1013.18
2023-05-09T01:04:18.559Z,1013.14
2023-05-09T01:05:18.552Z,1013.16
2023-05-09T01:06:18.559Z,1013.13
2023-05-09T01:07:18.524Z,1013.16
2023-05-09T01:08:18.514Z,1013.15
2023-05-09T01:09:18.509Z,1013.18
2023-05-09T01:10:18.485Z,1013.11
2023-05-09T01:11:18.510Z,1013.09
2023-05-09T01:12:18.460Z,1013.10
2023-05-09T01:13:18.500Z,1013.06
2023-05-09T01:14:18.455Z,1013.01
2023-05-09T01:15:18.450Z,1013.02
2023-05-09T01:16:18.514Z,1013.07
2023-05-09T01:17:18.468Z,1012.98
2023-05-09T01:18:18.396Z,1013.00
2023-05-09T01:19:18.392Z,1013.00
2023-05-09T01:20:18.369Z,1013.01
2023-05-09T01:21:18.388Z,1013.03
2023-05-09T01:22:19.859Z,1012.98
2023-05-09T01:23:18.336Z,1013.00
2023-05-09T01:24:18.335Z,1012.96
2023-05-09T01:25:18.361Z,1012.92
2023-05-09T01:26:18.450Z,1012.90
2023-05-09T01:27:18.434Z,1012.95
2023-05-09T01:28:18.299Z,1012.92
2023-05-09T01:29:18.272Z,1012.90
2023-05-09T01:30:18.296Z,1012.95
2023-05-09T01:31:18.306Z,1012.91
2023-05-09T01:32:18.248Z,1012.92
2023-05-09T01:33:18.264Z,1012.93
2023-05-09T01:34:18.478Z,1012.88
2023-05-09T01:35:18.211Z,1012.85
2023-05-09T01:36:18.547Z,1012.87
2023-05-09T01:37:18.261Z,1012.86
2023-05-09T01:38:18.179Z,1012.88
2023-05-09T01:39:18.187Z,1012.85
2023-05-09T01:40:18.158Z,1012.82
2023-05-09T01:41:18.159Z,1012.87
2023-05-09T01:42:18.131Z,1012.85
2023-05-09T01:43:18.163Z,1012.83
2023-05-09T01:44:18.148Z,1012.86
2023-05-09T01:45:19.559Z,1012.84
2023-05-09T01:46:18.126Z,1012.83
2023-05-09T01:47:18.917Z,1012.80
2023-05-09T01:48:18.520Z,1012.82
2023-05-09T01:49:18.125Z,1012.77
2023-05-09T01:50:19.171Z,1012.74
2023-05-09T01:51:18.868Z,1012.75
2023-05-09T01:52:19.001Z,1012.71
2023-05-09T01:53:19.471Z,1012.70
2023-05-09T01:54:18.796Z,1012.67
2023-05-09T01:55:19.455Z,1012.70
2023-05-09T01:56:19.457Z,1012.68
2023-05-09T01:57:18.939Z,1012.69
2023-05-09T01:58:18.171Z,1012.70
2023-05-09T01:59:18.792Z,1012.67
2023-05-09T02:00:18.154Z,1012.64
2023-05-09T02:01:19.429Z,1012.67
2023-05-09T02:02:18.095Z,1012.63
2023-05-09T02:03:18.912Z,1012.68
2023-05-09T02:04:18.713Z,1012.72
2023-05-09T02:05:18.013Z,1012.76
2023-05-09T02:06:18.832Z,1012.69
2023-05-09T02:07:19.338Z,1012.78
2023-05-09T02:08:18.645Z,1012.78
2023-05-09T02:09:18.148Z,1012.80
2023-05-09T02:10:19.295Z,1012.76
2023-05-09T02:11:19.282Z,1012.76
2023-05-09T02:12:17.938Z,1012.77
2023-05-09T02:13:18.680Z,1012.71
2023-05-09T02:14:17.796Z,1012.72
2023-05-09T02:15:19.253Z,1012.69
2023-05-09T02:16:19.008Z,1012.69
2023-05-09T02:17:19.227Z,1012.71
2023-05-09T02:18:17.747Z,1012.64
2023-05-09T02:19:18.563Z,1012.68
2023-05-09T02:20:17.722Z,1012.66
2023-05-09T02:21:17.791Z,1012.62
2023-05-09T02:22:18.544Z,1012.65
2023-05-09T02:23:17.681Z,1012.63
2023-05-09T02:24:19.168Z,1012.65
2023-05-09T02:25:18.488Z,1012.59
2023-05-09T02:26:19.257Z,1012.66
2023-05-09T02:27:17.762Z,1012.59
2023-05-09T02:28:18.590Z,1012.60
2023-05-09T02:29:17.809Z,1012.61
2023-05-09T02:30:19.611Z,1012.61
2023-05-09T02:31:17.746Z,1012.58
2023-05-09T02:32:18.568Z,1012.61
2023-05-09T02:33:17.581Z,1012.60
2023-05-09T02:34:18.383Z,1012.62
2023-05-09T02:35:18.992Z,1012.60
2023-05-09T02:36:18.385Z,1012.59
2023-05-09T02:37:17.529Z,1012.61
2023-05-09T02:38:17.827Z,1012.63
2023-05-09T02:39:19.525Z,1012.62
2023-05-09T02:40:18.460Z,1012.62
2023-05-09T02:41:18.956Z,1012.63
2023-05-09T02:42:18.484Z,1012.60
2023-05-09T02:43:17.457Z,1012.61
2023-05-09T02:44:17.499Z,1012.61
2023-05-09T02:45:18.968Z,1012.60
2023-05-09T02:46:17.451Z,1012.61
2023-05-09T02:47:18.225Z,1012.62
2023-05-09T02:48:17.400Z,1012.54
2023-05-09T02:49:31.466Z,1012.60
2023-05-09T02:50:18.403Z,1012.61
2023-05-09T02:51:17.493Z,1012.55
2023-05-09T02:52:17.407Z,1012.54
2023-05-09T02:53:18.843Z,1012.52
2023-05-09T02:54:17.354Z,1012.58
2023-05-09T02:55:17.699Z,1012.53
2023-05-09T02:56:17.542Z,1012.54
2023-05-09T02:57:18.764Z,1012.57
2023-05-09T02:58:18.152Z,1012.52
2023-05-09T02:59:18.770Z,1012.54
2023-05-09T03:00:17.607Z,1012.50
2023-05-09T03:01:18.276Z,1012.52
2023-05-09T03:02:18.719Z,1012.52
2023-05-09T03:03:17.351Z,1012.53
2023-05-09T03:04:18.132Z,1012.54
2023-05-09T03:05:18.676Z,1012.45
2023-05-09T03:06:17.646Z,1012.45
2023-05-09T03:07:18.185Z,1012.43
2023-05-09T03:08:17.199Z,1012.43
2023-05-09T03:09:17.985Z,1012.47
2023-05-09T03:10:18.669Z,1012.42
2023-05-09T03:11:17.169Z,1012.43
2023-05-09T03:12:18.653Z,1012.42
2023-05-09T03:13:18.135Z,1012.44
2023-05-09T03:14:17.970Z,1012.45
2023-05-09T03:15:17.212Z,1012.46
2023-05-09T03:16:17.914Z,1012.46
2023-05-09T03:17:18.574Z,1012.41
2023-05-09T03:18:17.432Z,1012.45
2023-05-09T03:19:18.534Z,1012.42
2023-05-09T03:20:18.526Z,1012.44
2023-05-09T03:21:17.059Z,1012.43
2023-05-09T03:22:17.031Z,1012.43
2023-05-09T03:23:19.020Z,1012.43
2023-05-09T03:24:17.030Z,1012.43
2023-05-09T03:25:17.548Z,1012.38
2023-05-09T03:26:18.456Z,1012.44
2023-05-09T03:27:18.434Z,1012.38
2023-05-09T03:28:17.825Z,1012.44
2023-05-09T03:29:17.488Z,1012.47
2023-05-09T03:30:18.398Z,1012.42
2023-05-09T03:31:17.023Z,1012.44
2023-05-09T03:32:17.010Z,1012.44
2023-05-09T03:33:16.912Z,1012.49
2023-05-09T03:34:16.917Z,1012.46
2023-05-09T03:35:17.377Z,1012.43
2023-05-09T03:36:16.920Z,1012.45
2023-05-09T03:37:17.670Z,1012.45
2023-05-09T03:38:16.923Z,1012.43
2023-05-09T03:39:16.967Z,1012.39
2023-05-09T03:40:18.351Z,1012.40
2023-05-09T03:41:17.099Z,1012.43
2023-05-09T03:42:16.979Z,1012.45
2023-05-09T03:43:18.310Z,1012.39
2023-05-09T03:44:17.628Z,1012.39
2023-05-09T03:45:17.165Z,1012.35
2023-05-09T03:46:16.871Z,1012.36
2023-05-09T03:47:16.887Z,1012.29
2023-05-09T03:48:16.790Z,1012.32
2023-05-09T03:49:17.035Z,1012.30
2023-05-09T03:50:16.724Z,1012.27
2023-05-09T03:51:18.247Z,1012.31
2023-05-09T03:52:16.720Z,1012.28
2023-05-09T03:53:17.518Z,1012.24
2023-05-09T03:54:16.918Z,1012.24
2023-05-09T03:55:16.978Z,1012.21
2023-05-09T03:56:17.516Z,1012.23
2023-05-09T03:57:17.440Z,1012.21
2023-05-09T03:58:16.645Z,1012.19
2023-05-09T03:59:16.633Z,1012.23
2023-05-09T04:00:16.692Z,1012.20
2023-05-09T04:01:16.652Z,1012.13
2023-05-09T04:02:17.073Z,1012.11
2023-05-09T04:03:16.703Z,1012.13
2023-05-09T04:04:16.573Z,1012.08
2023-05-09T04:05:16.946Z,1012.05
2023-05-09T04:06:16.572Z,1012.07
2023-05-09T04:07:16.556Z,1012.06
2023-05-09T04:08:17.368Z,1012.10
2023-05-09T04:09:16.536Z,1012.06
2023-05-09T04:10:16.551Z,1012.13
2023-05-09T04:11:16.590Z,1012.09
2023-05-09T04:12:16.514Z,1012.10
2023-05-09T04:13:17.998Z,1012.05
2023-05-09T04:14:16.503Z,1012.04
2023-05-09T04:15:16.644Z,1012.03
2023-05-09T04:16:17.555Z,1012.00
2023-05-09T04:17:17.427Z,1012.00
2023-05-09T04:18:17.878Z,1011.92
2023-05-09T04:19:16.475Z,1011.99
2023-05-09T04:20:16.507Z,1012.00
2023-05-09T04:21:16.419Z,1011.97
2023-05-09T04:22:17.200Z,1012.02
2023-05-09T04:23:16.386Z,1011.97
2023-05-09T04:24:16.387Z,1011.98
2023-05-09T04:25:17.841Z,1012.01
2023-05-09T04:26:16.350Z,1011.93
2023-05-09T04:27:16.310Z,1011.92
2023-05-09T04:28:17.117Z,1011.89
2023-05-09T04:29:16.594Z,1011.92
2023-05-09T04:30:16.325Z,1011.89
2023-05-09T04:31:16.383Z,1011.86
2023-05-09T04:32:16.306Z,1011.88
2023-05-09T04:33:16.249Z,1011.81
2023-05-09T04:34:16.297Z,1011.84
2023-05-09T04:35:19.676Z,1011.81
2023-05-09T04:36:17.667Z,1011.80
2023-05-09T04:37:16.252Z,1011.82
2023-05-09T04:38:16.192Z,1011.80
2023-05-09T04:39:16.173Z,1011.77
2023-05-09T04:40:16.152Z,1011.80
2023-05-09T04:41:16.212Z,1011.79
2023-05-09T04:42:16.157Z,1011.81
2023-05-09T04:43:16.165Z,1011.79
2023-05-09T04:44:16.173Z,1011.86
2023-05-09T04:45:16.355Z,1011.82
2023-05-09T04:46:16.163Z,1011.88
2023-05-09T04:47:16.352Z,1011.84
2023-05-09T04:48:17.550Z,1011.87
2023-05-09T04:49:16.113Z,1011.83
2023-05-09T04:50:17.526Z,1011.87
2023-05-09T04:51:16.065Z,1011.90
2023-05-09T04:52:17.504Z,1011.89
2023-05-09T04:53:18.003Z,1011.86
2023-05-09T04:54:16.025Z,1011.83
2023-05-09T04:55:16.453Z,1011.89
2023-05-09T04:56:17.002Z,1011.82
2023-05-09T04:57:18.246Z,1011.90
2023-05-09T04:58:16.013Z,1011.90
2023-05-09T04:59:16.127Z,1011.83
2023-05-09T05:00:17.400Z,1011.82
2023-05-09T05:01:17.475Z,1011.78
2023-05-09T05:02:16.097Z,1011.78
2023-05-09T05:03:16.715Z,1011.84
2023-05-09T05:04:17.412Z,1011.83
2023-05-09T05:05:16.315Z,1011.81
2023-05-09T05:06:17.363Z,1011.80
2023-05-09T05:07:17.355Z,1011.82
2023-05-09T05:08:25.059Z,1011.78
2023-05-09T05:09:17.310Z,1011.73
2023-05-09T05:10:17.364Z,1011.75
2023-05-09T05:11:15.863Z,1011.76
2023-05-09T05:12:16.794Z,1011.76
2023-05-09T05:13:15.898Z,1011.71
2023-05-09T05:14:16.765Z,1011.66
2023-05-09T05:15:17.298Z,1011.68
2023-05-09T05:16:16.300Z,1011.67
2023-05-09T05:17:17.293Z,1011.72
2023-05-09T05:18:15.774Z,1011.67
2023-05-09T05:19:15.851Z,1011.63
2023-05-09T05:20:16.682Z,1011.66
2023-05-09T05:21:15.987Z,1011.64
2023-05-09T05:22:15.988Z,1011.59
2023-05-09T05:23:15.712Z,1011.61
2023-05-09T05:24:15.700Z,1011.61
2023-05-09T05:25:17.394Z,1011.60
2023-05-09T05:26:17.097Z,1011.65
2023-05-09T05:27:15.790Z,1011.66
2023-05-09T05:28:17.112Z,1011.61
2023-05-09T05:29:16.652Z,1011.61
2023-05-09T05:30:15.697Z,1011.61
2023-05-09T05:31:16.134Z,1011.61
2023-05-09T05:32:15.605Z,1011.54
2023-05-09T05:33:15.582Z,1011.57
2023-05-09T05:34:17.587Z,1011.52
2023-05-09T05:35:15.941Z,1011.57
2023-05-09T05:36:15.788Z,1011.47
2023-05-09T05:37:15.593Z,1011.50
2023-05-09T05:38:15.526Z,1011.47
2023-05-09T05:39:15.511Z,1011.42
2023-05-09T05:40:15.687Z,1011.45
2023-05-09T05:41:15.474Z,1011.41
2023-05-09T05:42:15.747Z,1011.41
2023-05-09T05:43:15.462Z,1011.38
2023-05-09T05:44:15.471Z,1011.39
2023-05-09T05:45:15.772Z,1011.39
2023-05-09T05:46:15.546Z,1011.38
2023-05-09T05:47:15.482Z,1011.41
2023-05-09T05:48:15.412Z,1011.40
2023-05-09T05:49:15.395Z,1011.39
2023-05-09T05:50:15.404Z,1011.39
2023-05-09T05:51:16.245Z,1011.41
2023-05-09T05:52:15.370Z,1011.43
2023-05-09T05:53:15.366Z,1011.36
2023-05-09T05:54:17.312Z,1011.44
2023-05-09T05:55:15.553Z,1011.39
2023-05-09T05:56:15.416Z,1011.35
2023-05-09T05:57:15.465Z,1011.34
2023-05-09T05:58:16.763Z,1011.32
2023-05-09T05:59:15.357Z,1011.35
2023-05-09T06:00:15.340Z,1011.36
2023-05-09T06:01:15.279Z,1011.26
2023-05-09T06:02:15.316Z,1011.30
2023-05-09T06:03:15.309Z,1011.20
2023-05-09T06:04:15.354Z,1011.21
2023-05-09T06:05:16.953Z,1011.20
2023-05-09T06:06:15.226Z,1011.15
2023-05-09T06:07:15.487Z,1011.20
2023-05-09T06:08:15.207Z,1011.15
2023-05-09T06:09:16.004Z,1011.15
2023-05-09T06:10:16.640Z,1011.24
2023-05-09T06:11:16.626Z,1011.22
2023-05-09T06:12:15.150Z,1011.20
2023-05-09T06:13:16.639Z,1011.18
2023-05-09T06:14:15.986Z,1011.17
2023-05-09T06:15:15.579Z,1011.14
2023-05-09T06:16:20.002Z,1011.15
2023-05-09T06:17:17.416Z,1011.12
2023-05-09T06:18:15.902Z,1011.05
2023-05-09T06:19:15.180Z,1011.07
2023-05-09T06:20:15.060Z,1010.99
2023-05-09T06:21:16.547Z,1011.05
2023-05-09T06:22:15.067Z,1011.00
2023-05-09T06:23:15.009Z,1010.96
2023-05-09T06:24:27.582Z,1010.93
2023-05-09T06:25:16.741Z,1010.96
2023-05-09T06:26:15.098Z,1010.92
2023-05-09T06:27:15.009Z,1010.94
2023-05-09T06:28:16.426Z,1010.92
2023-05-09T06:29:16.430Z,1010.96
2023-05-09T06:30:25.322Z,1010.92
2023-05-09T06:31:15.967Z,1010.89
2023-05-09T06:32:15.008Z,1010.92
2023-05-09T06:33:15.767Z,1010.88
2023-05-09T06:34:15.871Z,1010.90
2023-05-09T06:35:15.103Z,1010.88
2023-05-09T06:36:14.873Z,1010.82
2023-05-09T06:37:15.061Z,1010.82
2023-05-09T06:38:15.335Z,1010.81
2023-05-09T06:39:14.857Z,1010.70
2023-05-09T06:40:14.869Z,1010.67
2023-05-09T06:41:14.812Z,1010.68
2023-05-09T06:42:14.803Z,1010.67
2023-05-09T06:43:15.749Z,1010.64
2023-05-09T06:44:14.839Z,1010.65
2023-05-09T06:45:16.062Z,1010.63
2023-05-09T06:46:14.788Z,1010.58
2023-05-09T06:47:14.785Z,1010.59
2023-05-09T06:48:14.742Z,1010.60
2023-05-09T06:49:14.722Z,1010.62
2023-05-09T06:50:14.720Z,1010.59
2023-05-09T06:51:15.619Z,1010.60
2023-05-09T06:52:14.690Z,1010.62
2023-05-09T06:53:14.689Z,1010.57
2023-05-09T06:54:14.688Z,1010.55
2023-05-09T06:55:14.982Z,1010.60
2023-05-09T06:56:14.658Z,1010.49
2023-05-09T06:57:14.650Z,1010.54
2023-05-09T06:58:14.668Z,1010.55
2023-05-09T06:59:14.631Z,1010.53
2023-05-09T07:00:14.679Z,1010.50
2023-05-09T07:01:14.615Z,1010.53
2023-05-09T07:02:14.601Z,1010.50
2023-05-09T07:03:14.611Z,1010.45
2023-05-09T07:04:14.607Z,1010.41
2023-05-09T07:05:14.741Z,1010.45
2023-05-09T07:06:14.568Z,1010.45
2023-05-09T07:07:14.702Z,1010.43
2023-05-09T07:08:14.547Z,1010.50
2023-05-09T07:09:14.595Z,1010.36
2023-05-09T07:10:14.498Z,1010.35
2023-05-09T07:11:15.481Z,1010.33
2023-05-09T07:12:15.510Z,1010.33
2023-05-09T07:13:14.493Z,1010.33
2023-05-09T07:14:14.673Z,1010.31
2023-05-09T07:15:20.393Z,1010.27
2023-05-09T07:16:15.548Z,1010.31
2023-05-09T07:17:22.851Z,1010.30
2023-05-09T07:18:15.482Z,1010.29
2023-05-09T07:19:15.157Z,1010.28
2023-05-09T07:20:14.421Z,1010.27
2023-05-09T07:21:14.429Z,1010.26
2023-05-09T07:22:14.433Z,1010.24
2023-05-09T07:23:14.334Z,1010.19
2023-05-09T07:24:14.345Z,1010.25
2023-05-09T07:25:14.519Z,1010.24
2023-05-09T07:26:14.363Z,1010.24
2023-05-09T07:27:15.276Z,1010.17
2023-05-09T07:28:14.337Z,1010.17
2023-05-09T07:29:14.313Z,1010.20
2023-05-09T07:30:14.498Z,1010.16
2023-05-09T07:31:14.294Z,1010.16
2023-05-09T07:32:15.325Z,1010.09
2023-05-09T07:33:14.333Z,1010.13
2023-05-09T07:34:14.260Z,1010.08
2023-05-09T07:35:14.489Z,1010.10
2023-05-09T07:36:14.282Z,1010.11
2023-05-09T07:37:16.378Z,1010.03
2023-05-09T07:38:14.313Z,1010.13
2023-05-09T07:39:14.189Z,1010.09
2023-05-09T07:40:16.634Z,1010.09
2023-05-09T07:41:14.204Z,1010.07
2023-05-09T07:42:14.212Z,1010.15
2023-05-09T07:43:14.450Z,1010.11
2023-05-09T07:44:14.147Z,1010.06
2023-05-09T07:45:14.323Z,1010.11
2023-05-09T07:46:14.198Z,1010.08
2023-05-09T07:47:14.088Z,1010.03
2023-05-09T07:48:14.117Z,1010.03
2023-05-09T07:49:14.046Z,1010.03
2023-05-09T07:50:15.125Z,1010.04
2023-05-09T07:51:14.064Z,1010.00
2023-05-09T07:52:15.024Z,1009.98
2023-05-09T07:53:14.070Z,1010.00
2023-05-09T07:54:14.501Z,1009.98
2023-05-09T07:55:14.304Z,1010.02
2023-05-09T07:56:14.254Z,1010.04
2023-05-09T07:57:14.128Z,1009.99
2023-05-09T07:58:14.527Z,1009.98
2023-05-09T07:59:13.959Z,1009.98
2023-05-09T08:00:13.956Z,1009.93
2023-05-09T08:01:13.929Z,1009.93
2023-05-09T08:02:14.017Z,1009.89
2023-05-09T08:03:14.596Z,1009.86
2023-05-09T08:04:14.733Z,1009.84
2023-05-09T08:05:14.269Z,1009.88
2023-05-09T08:06:13.899Z,1009.83
2023-05-09T08:07:14.830Z,1009.82
2023-05-09T08:08:14.523Z,1009.82
2023-05-09T08:09:14.720Z,1009.80
2023-05-09T08:10:13.837Z,1009.71
2023-05-09T08:11:13.871Z,1009.75
2023-05-09T08:12:13.840Z,1009.70
2023-05-09T08:13:14.798Z,1009.69
2023-05-09T08:14:15.039Z,1009.66
2023-05-09T08:15:14.224Z,1009.67
2023-05-09T08:16:14.812Z,1009.68
2023-05-09T08:17:13.775Z,1009.65
2023-05-09T08:18:13.797Z,1009.59
2023-05-09T08:19:13.749Z,1009.56
2023-05-09T08:20:14.557Z,1009.58
2023-05-09T08:21:13.754Z,1009.54
2023-05-09T08:22:13.788Z,1009.53
2023-05-09T08:23:13.705Z,1009.50
2023-05-09T08:24:13.701Z,1009.51
2023-05-09T08:25:13.918Z,1009.47
2023-05-09T08:26:14.639Z,1009.45
2023-05-09T08:27:14.473Z,1009.38
2023-05-09T08:28:14.476Z,1009.34
2023-05-09T08:29:14.600Z,1009.37
2023-05-09T08:30:13.684Z,1009.38
2023-05-09T08:31:13.706Z,1009.38
2023-05-09T08:32:13.646Z,1009.42
2023-05-09T08:33:13.680Z,1009.41
2023-05-09T08:34:14.541Z,1009.38
2023-05-09T08:35:13.763Z,1009.37
2023-05-09T08:36:13.810Z,1009.38
2023-05-09T08:37:15.394Z,1009.38
2023-05-09T08:38:13.538Z,1009.37
2023-05-09T08:39:13.500Z,1009.35
2023-05-09T08:40:13.731Z,1009.31
2023-05-09T08:41:13.497Z,1009.35
2023-05-09T08:42:13.763Z,1009.32
2023-05-09T08:43:13.522Z,1009.29
2023-05-09T08:44:17.386Z,1009.32
2023-05-09T08:45:13.445Z,1009.25
2023-05-09T08:46:13.775Z,1009.26
2023-05-09T08:47:13.638Z,1009.26
2023-05-09T08:48:13.454Z,1009.27
2023-05-09T08:49:13.436Z,1009.21
2023-05-09T08:50:13.730Z,1009.25
2023-05-09T08:51:13.485Z,1009.21
2023-05-09T08:52:13.387Z,1009.22
2023-05-09T08:53:13.386Z,1009.22
2023-05-09T08:54:13.502Z,1009.24
2023-05-09T08:55:13.385Z,1009.17
2023-05-09T08:56:13.322Z,1009.15
2023-05-09T08:57:13.389Z,1009.15
2023-05-09T08:58:14.253Z,1009.15
2023-05-09T08:59:13.305Z,1009.12
2023-05-09T09:00:13.950Z,1009.16
2023-05-09T09:01:13.347Z,1009.12
2023-05-09T09:02:13.267Z,1009.10
2023-05-09T09:03:13.280Z,1009.08
2023-05-09T09:04:13.253Z,1009.09
2023-05-09T09:05:34.146Z,1009.11
2023-05-09T09:06:14.217Z,1009.07
2023-05-09T09:07:13.780Z,1009.04
2023-05-09T09:08:13.240Z,1009.04
2023-05-09T09:09:13.216Z,1009.05
2023-05-09T09:10:13.848Z,1009.00
2023-05-09T09:11:13.190Z,1009.02
2023-05-09T09:12:13.334Z,1008.93
2023-05-09T09:13:13.165Z,1008.89
2023-05-09T09:14:13.622Z,1008.95
2023-05-09T09:15:14.227Z,1008.94
2023-05-09T09:16:13.156Z,1008.90
2023-05-09T09:17:14.561Z,1008.90
2023-05-09T09:18:13.180Z,1008.80
2023-05-09T09:19:13.132Z,1008.82
2023-05-09T09:20:14.730Z,1008.82
2023-05-09T09:21:13.727Z,1008.79
2023-05-09T09:22:13.488Z,1008.83
2023-05-09T09:23:13.779Z,1008.80
2023-05-09T09:24:13.687Z,1008.81
2023-05-09T09:25:13.598Z,1008.82
2023-05-09T09:26:13.754Z,1008.77
2023-05-09T09:27:13.124Z,1008.81
2023-05-09T09:28:12.986Z,1008.79
2023-05-09T09:29:13.723Z,1008.80
2023-05-09T09:30:13.952Z,1008.82
2023-05-09T09:31:16.609Z,1008.79
2023-05-09T09:32:14.553Z,1008.81
2023-05-09T09:33:12.914Z,1008.81
2023-05-09T09:34:13.761Z,1008.75
2023-05-09T09:35:13.853Z,1008.77
2023-05-09T09:36:13.435Z,1008.72
2023-05-09T09:37:14.345Z,1008.73
2023-05-09T09:38:14.318Z,1008.70
2023-05-09T09:39:12.846Z,1008.73
2023-05-09T09:40:14.006Z,1008.69
2023-05-09T09:41:14.297Z,1008.68
2023-05-09T09:42:12.816Z,1008.68
2023-05-09T09:43:12.819Z,1008.63
2023-05-09T09:44:14.282Z,1008.61
2023-05-09T09:45:14.264Z,1008.62
2023-05-09T09:46:13.627Z,1008.58
2023-05-09T09:47:14.234Z,1008.55
2023-05-09T09:48:13.697Z,1008.59
2023-05-09T09:49:13.605Z,1008.53
2023-05-09T09:50:13.029Z,1008.52
2023-05-09T09:51:13.758Z,1008.54
2023-05-09T09:52:14.171Z,1008.55
2023-05-09T09:53:12.884Z,1008.48
2023-05-09T09:54:14.175Z,1008.51
2023-05-09T09:55:13.788Z,1008.48
2023-05-09T09:56:14.172Z,1008.46
2023-05-09T09:57:13.530Z,1008.43
2023-05-09T09:58:13.514Z,1008.41
2023-05-09T09:59:13.412Z,1008.38
2023-05-09T10:00:12.887Z,1008.38
2023-05-09T10:01:12.672Z,1008.36
2023-05-09T10:02:14.066Z,1008.33
2023-05-09T10:03:12.755Z,1008.35
2023-05-09T10:04:14.138Z,1008.38
2023-05-09T10:05:14.062Z,1008.37
2023-05-09T10:06:14.052Z,1008.34
2023-05-09T10:07:15.147Z,1008.30
2023-05-09T10:08:14.000Z,1008.30
2023-05-09T10:09:13.362Z,1008.31
2023-05-09T10:10:14.163Z,1008.29
2023-05-09T10:11:14.060Z,1008.28
2023-05-09T10:12:12.489Z,1008.34
2023-05-09T10:13:13.546Z,1008.26
2023-05-09T10:14:13.935Z,1008.26
2023-05-09T10:15:13.944Z,1008.28
2023-05-09T10:16:13.334Z,1008.34
2023-05-09T10:17:14.160Z,1008.25
2023-05-09T10:18:13.442Z,1008.28
2023-05-09T10:19:13.270Z,1008.26
2023-05-09T10:20:14.073Z,1008.24
2023-05-09T10:21:13.859Z,1008.20
2023-05-09T10:22:13.190Z,1008.24
2023-05-09T10:23:13.193Z,1008.17
2023-05-09T10:24:13.192Z,1008.23
2023-05-09T10:25:13.401Z,1008.16
2023-05-09T10:26:12.412Z,1008.12
2023-05-09T10:27:13.389Z,1008.16
2023-05-09T10:28:13.184Z,1008.16
2023-05-09T10:29:13.264Z,1008.08
2023-05-09T10:30:12.512Z,1008.06
2023-05-09T10:31:13.169Z,1008.06
2023-05-09T10:32:12.340Z,1008.07
2023-05-09T10:33:13.113Z,1008.07
2023-05-09T10:34:13.749Z,1008.06
2023-05-09T10:35:13.994Z,1007.98
2023-05-09T10:36:13.217Z,1007.96
2023-05-09T10:37:13.684Z,1007.99
2023-05-09T10:38:13.056Z,1007.98
2023-05-09T10:39:13.654Z,1007.95
2023-05-09T10:40:13.655Z,1007.98
2023-05-09T10:41:13.030Z,1007.95
2023-05-09T10:42:13.615Z,1007.91
2023-05-09T10:43:13.619Z,1007.90
2023-05-09T10:44:12.142Z,1007.86
2023-05-09T10:45:13.409Z,1007.84
2023-05-09T10:46:12.434Z,1007.85
2023-05-09T10:47:12.987Z,1007.83
2023-05-09T10:48:12.137Z,1007.82
2023-05-09T10:49:13.544Z,1007.79
2023-05-09T10:50:13.514Z,1007.77
2023-05-09T10:51:12.124Z,1007.80
2023-05-09T10:52:14.013Z,1007.79
2023-05-09T10:53:12.872Z,1007.78
2023-05-09T10:54:12.025Z,1007.76
2023-05-09T10:55:12.198Z,1007.73
2023-05-09T10:56:12.146Z,1007.69
2023-05-09T10:57:12.226Z,1007.70
2023-05-09T10:58:12.790Z,1007.68
2023-05-09T10:59:13.430Z,1007.66
2023-05-09T11:00:12.337Z,1007.62
2023-05-09T11:01:13.438Z,1007.64
2023-05-09T11:02:12.170Z,1007.58
2023-05-09T11:03:13.486Z,1007.60
2023-05-09T11:04:12.840Z,1007.59
2023-05-09T11:05:13.657Z,1007.52
2023-05-09T11:06:12.353Z,1007.55
2023-05-09T11:07:13.351Z,1007.56
2023-05-09T11:08:12.707Z,1007.53
2023-05-09T11:09:12.710Z,1007.48
2023-05-09T11:10:13.317Z,1007.52
2023-05-09T11:11:11.897Z,1007.48
2023-05-09T11:12:13.318Z,1007.51
2023-05-09T11:13:13.372Z,1007.50
2023-05-09T11:14:13.281Z,1007.50
2023-05-09T11:15:12.827Z,1007.48
2023-05-09T11:16:12.017Z,1007.46
2023-05-09T11:17:13.285Z,1007.43
2023-05-09T11:18:11.915Z,1007.38
2023-05-09T11:19:13.218Z,1007.39
2023-05-09T11:20:12.579Z,1007.37
2023-05-09T11:21:13.195Z,1007.34
2023-05-09T11:22:11.943Z,1007.30
2023-05-09T11:23:11.960Z,1007.33
2023-05-09T11:24:13.148Z,1007.29
2023-05-09T11:25:12.651Z,1007.26
2023-05-09T11:26:13.633Z,1007.25
2023-05-09T11:27:13.131Z,1007.21
2023-05-09T11:28:13.110Z,1007.22
2023-05-09T11:29:12.469Z,1007.17
2023-05-09T11:30:11.675Z,1007.13
2023-05-09T11:31:12.483Z,1007.14
2023-05-09T11:32:13.239Z,1007.13
2023-05-09T11:33:12.586Z,1007.12
2023-05-09T11:34:11.641Z,1007.12
2023-05-09T11:35:13.135Z,1007.09
2023-05-09T11:36:12.393Z,1007.05
2023-05-09T11:37:13.017Z,1007.05
2023-05-09T11:38:12.394Z,1007.05
2023-05-09T11:39:12.580Z,1006.99
2023-05-09T11:40:12.989Z,1007.01
2023-05-09T11:41:12.326Z,1006.94
2023-05-09T11:42:12.314Z,1006.99
2023-05-09T11:43:12.957Z,1006.93
2023-05-09T11:44:13.452Z,1006.90
2023-05-09T11:45:11.941Z,1006.84
2023-05-09T11:46:12.339Z,1006.86
2023-05-09T11:47:11.453Z,1006.84
2023-05-09T11:48:11.663Z,1006.87
2023-05-09T11:49:12.489Z,1006.86
2023-05-09T11:50:12.888Z,1006.87
2023-05-09T11:51:11.704Z,1006.80
2023-05-09T11:52:11.639Z,1006.73
2023-05-09T11:53:11.572Z,1006.73
2023-05-09T11:54:12.229Z,1006.70
2023-05-09T11:55:13.097Z,1006.69
2023-05-09T11:56:11.430Z,1006.66
2023-05-09T11:57:12.794Z,1006.65
2023-05-09T11:58:12.150Z,1006.63
2023-05-09T11:59:11.567Z,1006.60
2023-05-09T12:00:12.752Z,1006.66
2023-05-09T12:01:12.762Z,1006.61
2023-05-09T12:02:12.441Z,1006.64
2023-05-09T12:03:13.001Z,1006.58
2023-05-09T12:04:11.300Z,1006.57
2023-05-09T12:05:13.019Z,1006.58